createdAt,value
2023-03-15T00:01:29.936Z,1001.19
2023-03-15T00:04:37.706Z,1001.22
2023-03-15T00:07:44.743Z,1001.19
2023-03-15T00:10:52.420Z,1001.27
2023-03-15T00:13:59.899Z,1001.30
2023-03-15T00:17:07.388Z,1001.29
2023-03-15T00:20:15.217Z,1001.33
2023-03-15T00:23:22.637Z,1001.45
2023-03-15T00:26:30.087Z,1001.42
2023-03-15T00:29:37.553Z,1001.46
2023-03-15T00:32:45.348Z,1001.44
2023-03-15T00:35:52.682Z,1001.51
2023-03-15T00:39:00.305Z,1001.63
2023-03-15T00:42:08.028Z,1001.63
2023-03-15T00:45:15.429Z,1001.70
2023-03-15T00:48:22.812Z,1001.69
2023-03-15T00:51:30.756Z,1001.72
2023-03-15T00:54:38.119Z,1001.75
2023-03-15T00:57:45.669Z,1001.75
2023-03-15T01:00:53.441Z,1001.83
2023-03-15T01:04:00.460Z,1001.79
2023-03-15T01:07:08.156Z,1001.80
2023-03-15T01:10:15.660Z,1001.85
2023-03-15T01:13:22.866Z,1001.87
2023-03-15T01:16:30.855Z,1001.90
2023-03-15T01:19:38.253Z,1001.86
2023-03-15T01:22:45.583Z,1001.92
2023-03-15T01:25:53.274Z,1001.95
2023-03-15T01:29:00.410Z,1001.94
2023-03-15T01:32:08.066Z,1001.98
2023-03-15T01:35:16.171Z,1002.00
2023-03-15T01:38:23.163Z,1001.96
2023-03-15T01:41:30.765Z,1001.97
2023-03-15T01:44:38.618Z,1001.98
2023-03-15T01:47:45.730Z,1001.92
2023-03-15T01:50:53.133Z,1001.94
2023-03-15T01:53:55.031Z,1002.00
2023-03-15T01:57:02.731Z,1001.97
2023-03-15T02:00:10.687Z,1002.00
2023-03-15T02:03:18.483Z,1002.08
2023-03-15T02:06:25.857Z,1002.09
2023-03-15T02:09:34.083Z,1002.03
2023-03-15T02:12:41.804Z,1002.10
2023-03-15T02:15:49.542Z,1002.03
2023-03-15T02:18:57.111Z,1002.09
2023-03-15T02:22:04.885Z,1002.09
2023-03-15T02:25:12.818Z,1002.07
2023-03-15T02:28:20.262Z,1002.09
2023-03-15T02:31:28.134Z,1002.07
2023-03-15T02:34:36.109Z,1002.09
2023-03-15T02:37:43.888Z,1002.10
2023-03-15T02:40:51.715Z,1002.21
2023-03-15T02:43:59.812Z,1002.17
2023-03-15T02:47:07.609Z,1002.14
2023-03-15T02:50:15.324Z,1002.17
2023-03-15T02:53:23.275Z,1002.30
2023-03-15T02:56:31.338Z,1002.36
2023-03-15T02:59:39.193Z,1002.40
2023-03-15T03:02:46.588Z,1002.40
2023-03-15T03:05:54.818Z,1002.53
2023-03-15T03:09:02.147Z,1002.53
2023-03-15T03:12:10.301Z,1002.58
2023-03-15T03:15:18.268Z,1002.55
2023-03-15T03:18:25.560Z,1002.62
2023-03-15T03:21:33.659Z,1002.71
2023-03-15T03:24:41.697Z,1002.75
2023-03-15T03:27:49.269Z,1002.83
2023-03-15T03:30:57.362Z,1002.77
2023-03-15T03:34:05.438Z,1002.81
2023-03-15T03:37:12.774Z,1002.80
2023-03-15T03:40:20.770Z,1002.84
2023-03-15T03:43:28.624Z,1002.93
2023-03-15T03:46:36.484Z,1002.92
2023-03-15T03:49:44.606Z,1002.94
2023-03-15T03:52:52.154Z,1003.01
2023-03-15T03:55:59.820Z,1003.01
2023-03-15T03:59:07.599Z,1003.08
2023-03-15T04:02:15.497Z,1003.17
2023-03-15T04:05:23.186Z,1003.19
2023-03-15T04:08:30.978Z,1003.25
2023-03-15T04:11:38.929Z,1003.29
2023-03-15T04:14:46.814Z,1003.24
2023-03-15T04:17:54.628Z,1003.32
2023-03-15T04:21:02.930Z,1003.40
2023-03-15T04:24:10.852Z,1003.42
2023-03-15T04:27:18.690Z,1003.44
2023-03-15T04:30:26.713Z,1003.50
2023-03-15T04:33:34.205Z,1003.46
2023-03-15T04:36:42.201Z,1003.54
2023-03-15T04:39:50.257Z,1003.57
2023-03-15T04:42:57.618Z,1003.64
2023-03-15T04:46:05.546Z,1003.74
2023-03-15T04:49:13.850Z,1003.72
2023-03-15T04:52:21.271Z,1003.74
2023-03-15T04:55:29.110Z,1003.76
2023-03-15T04:58:37.148Z,1003.82
2023-03-15T05:01:44.499Z,1003.94
2023-03-15T05:04:52.331Z,1003.95
2023-03-15T05:08:00.405Z,1003.95
2023-03-15T05:11:07.789Z,1003.97
2023-03-15T05:14:15.694Z,1004.02
2023-03-15T05:17:23.406Z,1004.04
2023-03-15T05:20:31.174Z,1004.17
2023-03-15T05:23:39.255Z,1004.07
2023-03-15T05:26:46.968Z,1004.20
2023-03-15T05:29:54.694Z,1004.36
2023-03-15T05:33:02.583Z,1004.33
2023-03-15T05:36:10.664Z,1004.39
2023-03-15T05:39:18.331Z,1004.39
2023-03-15T05:42:26.290Z,1004.52
2023-03-15T05:45:34.590Z,1004.64
2023-03-15T05:48:42.218Z,1004.67
2023-03-15T05:51:50.017Z,1004.74
2023-03-15T05:54:57.965Z,1004.80
2023-03-15T05:58:05.709Z,1004.89
2023-03-15T06:01:13.604Z,1004.96
2023-03-15T06:04:22.245Z,1005.00
2023-03-15T06:07:29.933Z,1005.09
2023-03-15T06:10:37.696Z,1005.16
2023-03-15T06:13:45.581Z,1005.19
2023-03-15T06:16:52.937Z,1005.22
2023-03-15T06:20:00.884Z,1005.35
2023-03-15T06:23:08.659Z,1005.41
2023-03-15T06:26:16.243Z,1005.49
2023-03-15T06:29:24.116Z,1005.51
2023-03-15T06:32:31.940Z,1005.61
2023-03-15T06:35:39.349Z,1005.68
2023-03-15T06:38:46.935Z,1005.64
2023-03-15T06:41:54.598Z,1005.68
2023-03-15T06:45:01.891Z,1005.76
2023-03-15T06:48:09.389Z,1005.82
2023-03-15T06:51:16.683Z,1005.82
2023-03-15T06:54:24.798Z,1005.90
2023-03-15T06:57:32.758Z,1005.92
2023-03-15T07:00:40.178Z,1005.90
2023-03-15T07:03:48.225Z,1005.91
2023-03-15T07:06:55.912Z,1005.97
2023-03-15T07:10:03.641Z,1006.03
2023-03-15T07:13:11.347Z,1006.06
2023-03-15T07:16:19.018Z,1006.08
2023-03-15T07:19:27.008Z,1006.07
2023-03-15T07:22:34.246Z,1006.08
2023-03-15T07:25:54.427Z,1006.20
2023-03-15T07:28:47.679Z,1006.12
2023-03-15T07:31:55.059Z,1006.17
2023-03-15T07:35:03.898Z,1006.28
2023-03-15T07:38:11.863Z,1006.27
2023-03-15T07:41:19.081Z,1006.41
2023-03-15T07:44:26.992Z,1006.45
2023-03-15T07:47:34.896Z,1006.47
2023-03-15T07:50:42.305Z,1006.48
2023-03-15T07:53:49.887Z,1006.48
2023-03-15T07:56:57.641Z,1006.49
2023-03-15T08:00:05.235Z,1006.62
2023-03-15T08:03:13.299Z,1006.60
2023-03-15T08:06:20.905Z,1006.59
2023-03-15T08:09:28.541Z,1006.66
2023-03-15T08:12:36.489Z,1006.58
2023-03-15T08:15:44.329Z,1006.64
2023-03-15T08:18:51.964Z,1006.64
2023-03-15T08:22:00.439Z,1006.73
2023-03-15T08:25:07.983Z,1006.77
2023-03-15T08:28:15.923Z,1006.79
2023-03-15T08:31:23.858Z,1006.94
2023-03-15T08:34:31.861Z,1006.97
2023-03-15T08:37:39.524Z,1006.95
2023-03-15T08:40:46.913Z,1007.00
2023-03-15T08:43:54.849Z,1007.01
2023-03-15T08:47:02.656Z,1007.09
2023-03-15T08:50:10.366Z,1007.15
2023-03-15T08:53:18.515Z,1007.21
2023-03-15T08:56:26.373Z,1007.22
2023-03-15T08:59:34.076Z,1007.28
2023-03-15T09:02:41.687Z,1007.30
2023-03-15T09:05:49.213Z,1007.34
2023-03-15T09:08:57.135Z,1007.35
2023-03-15T09:12:04.295Z,1007.53
2023-03-15T09:15:11.777Z,1007.60
2023-03-15T09:18:19.701Z,1007.62
2023-03-15T09:21:27.347Z,1007.58
2023-03-15T09:24:34.841Z,1007.78
2023-03-15T09:27:42.712Z,1007.75
2023-03-15T09:30:50.167Z,1007.79
2023-03-15T09:33:58.107Z,1007.83
2023-03-15T09:37:06.117Z,1007.82
2023-03-15T09:40:13.493Z,1007.83
2023-03-15T09:43:21.528Z,1007.93
2023-03-15T09:46:29.843Z,1007.92
2023-03-15T09:49:37.101Z,1007.90
2023-03-15T09:52:45.063Z,1008.00
2023-03-15T09:55:52.933Z,1008.04
2023-03-15T09:59:00.199Z,1007.99
2023-03-15T10:02:08.008Z,1008.00
2023-03-15T10:05:15.583Z,1008.06
2023-03-15T10:08:23.513Z,1008.19
2023-03-15T10:11:31.232Z,1008.19
2023-03-15T10:14:39.236Z,1008.10
2023-03-15T10:17:46.493Z,1008.09
2023-03-15T10:20:54.668Z,1008.13
2023-03-15T10:24:02.060Z,1008.04
2023-03-15T10:27:10.401Z,1008.05
2023-03-15T10:30:18.247Z,1008.05
2023-03-15T10:33:26.013Z,1007.91
2023-03-15T10:36:33.913Z,1007.90
2023-03-15T10:39:41.916Z,1007.88
2023-03-15T10:42:49.375Z,1007.89
2023-03-15T10:45:57.604Z,1008.00
2023-03-15T10:49:04.953Z,1007.93
2023-03-15T10:52:13.374Z,1008.00
2023-03-15T10:55:21.254Z,1008.10
2023-03-15T10:58:28.916Z,1008.07
2023-03-15T11:01:36.876Z,1008.34
2023-03-15T11:04:44.918Z,1008.20
2023-03-15T11:07:52.158Z,1008.20
2023-03-15T11:11:00.209Z,1008.29
2023-03-15T11:14:07.501Z,1008.31
2023-03-15T11:17:15.512Z,1008.38
2023-03-15T11:20:23.063Z,1008.44
2023-03-15T11:23:30.663Z,1008.41
2023-03-15T11:26:38.285Z,1008.46
2023-03-15T11:29:46.179Z,1008.46
2023-03-15T11:32:53.503Z,1008.41
2023-03-15T11:36:01.488Z,1008.48
2023-03-15T11:39:08.688Z,1008.43
2023-03-15T11:42:16.927Z,1008.61
2023-03-15T11:45:24.472Z,1008.47
2023-03-15T11:48:32.029Z,1008.55
2023-03-15T11:51:39.441Z,1008.48
2023-03-15T11:54:47.558Z,1008.45
2023-03-15T11:57:55.124Z,1008.45
2023-03-15T12:01:03.103Z,1008.51
2023-03-15T12:04:10.358Z,1008.49
2023-03-15T12:07:18.918Z,1008.53
2023-03-15T12:10:26.790Z,1008.58
2023-03-15T12:13:34.448Z,1008.53
2023-03-15T12:16:42.157Z,1008.52
2023-03-15T12:19:50.117Z,1008.51
2023-03-15T12:22:58.336Z,1008.43
2023-03-15T12:26:06.074Z,1008.46
2023-03-15T12:29:13.384Z,1008.45
2023-03-15T12:32:21.605Z,1008.43
2023-03-15T12:35:29.120Z,1008.49
2023-03-15T12:38:36.809Z,1008.51
2023-03-15T12:41:44.102Z,1008.56
2023-03-15T12:44:52.244Z,1008.58
2023-03-15T12:47:59.454Z,1008.63
2023-03-15T12:51:07.472Z,1008.72
2023-03-15T12:54:15.569Z,1008.68
2023-03-15T12:57:22.866Z,1008.72
2023-03-15T13:00:30.795Z,1008.75
2023-03-15T13:03:38.454Z,1008.82
2023-03-15T13:06:46.142Z,1008.62
2023-03-15T13:09:54.075Z,1008.70
2023-03-15T13:13:01.778Z,1008.77
2023-03-15T13:16:09.500Z,1008.72
2023-03-15T13:19:17.732Z,1008.60
2023-03-15T13:22:25.612Z,1008.62
2023-03-15T13:25:33.353Z,1008.79
2023-03-15T13:28:41.434Z,1008.96
2023-03-15T13:31:49.026Z,1009.13
2023-03-15T13:34:56.581Z,1009.11
2023-03-15T13:38:04.242Z,1009.21
2023-03-15T13:41:12.247Z,1009.30
2023-03-15T13:44:19.845Z,1009.45
2023-03-15T13:47:27.988Z,1009.49
2023-03-15T13:50:36.079Z,1009.55
2023-03-15T13:53:50.000Z,1009.59
2023-03-15T13:56:49.867Z,1009.64
2023-03-15T13:59:57.801Z,1009.76
2023-03-15T14:03:05.203Z,1009.78
2023-03-15T14:06:13.441Z,1009.79
2023-03-15T14:09:21.615Z,1009.78
2023-03-15T14:12:28.963Z,1009.78
2023-03-15T14:15:37.219Z,1009.82
2023-03-15T14:18:44.774Z,1009.75
2023-03-15T14:21:52.305Z,1009.86
2023-03-15T14:24:59.984Z,1009.68
2023-03-15T14:28:07.724Z,1009.75
2023-03-15T14:31:15.415Z,1009.69
2023-03-15T14:34:23.355Z,1009.81
2023-03-15T14:37:31.038Z,1009.85
2023-03-15T14:40:38.234Z,1009.82
2023-03-15T14:43:45.623Z,1009.86
2023-03-15T14:46:53.593Z,1009.75
2023-03-15T14:50:01.323Z,1009.80
2023-03-15T14:53:08.754Z,1009.88
2023-03-15T14:56:19.335Z,1009.82
2023-03-15T14:59:27.058Z,1009.78
2023-03-15T15:02:35.354Z,1009.88
2023-03-15T15:05:43.636Z,1009.91
2023-03-15T15:08:50.954Z,1009.90
2023-03-15T15:11:58.883Z,1009.91
2023-03-15T15:15:06.806Z,1009.89
2023-03-15T15:18:14.076Z,1009.86
2023-03-15T15:21:22.005Z,1009.89
2023-03-15T15:24:29.477Z,1009.86
2023-03-15T15:27:36.978Z,1009.91
2023-03-15T15:30:44.576Z,1009.99
2023-03-15T15:33:52.114Z,1010.08
2023-03-15T15:36:59.634Z,1010.17
2023-03-15T15:40:07.688Z,1010.19
2023-03-15T15:43:15.123Z,1010.17
2023-03-15T15:46:22.826Z,1010.14
2023-03-15T15:49:29.897Z,1010.24
2023-03-15T15:52:38.027Z,1010.20
2023-03-15T15:55:45.741Z,1010.31
2023-03-15T15:58:53.383Z,1010.29
2023-03-15T16:02:02.373Z,1010.32
2023-03-15T16:05:11.255Z,1010.30
2023-03-15T16:08:19.193Z,1010.38
2023-03-15T16:11:27.051Z,1010.44
2023-03-15T16:14:34.637Z,1010.44
2023-03-15T16:17:42.276Z,1010.52
2023-03-15T16:20:49.697Z,1010.59
2023-03-15T16:23:57.156Z,1010.63
2023-03-15T16:27:04.727Z,1010.67
2023-03-15T16:30:12.213Z,1010.70
2023-03-15T16:33:19.843Z,1010.72
2023-03-15T16:36:27.415Z,1010.75
2023-03-15T16:39:34.833Z,1010.74
2023-03-15T16:42:42.302Z,1010.87
2023-03-15T16:45:50.049Z,1010.87
2023-03-15T16:48:57.568Z,1010.96
2023-03-15T16:52:05.186Z,1010.92
2023-03-15T16:55:12.786Z,1010.97
2023-03-15T16:58:20.510Z,1011.12
2023-03-15T17:01:28.047Z,1011.15
2023-03-15T17:04:35.493Z,1011.20
2023-03-15T17:07:43.559Z,1011.26
2023-03-15T17:10:51.352Z,1011.25
2023-03-15T17:13:59.039Z,1011.35
2023-03-15T17:17:06.870Z,1011.37
2023-03-15T17:20:14.141Z,1011.45
2023-03-15T17:23:22.007Z,1011.49
2023-03-15T17:26:29.936Z,1011.57
2023-03-15T17:29:37.285Z,1011.60
2023-03-15T17:32:45.084Z,1011.61
2023-03-15T17:35:52.898Z,1011.55
2023-03-15T17:39:00.292Z,1011.58
2023-03-15T17:42:07.900Z,1011.72
2023-03-15T17:45:15.578Z,1011.70
2023-03-15T17:48:23.356Z,1011.73
2023-03-15T17:51:31.782Z,1011.74
2023-03-15T17:54:39.371Z,1011.77
2023-03-15T17:57:55.271Z,1011.81
2023-03-15T18:00:55.958Z,1011.83
2023-03-15T18:03:54.789Z,1011.80
2023-03-15T18:07:04.178Z,1011.86
2023-03-15T18:10:02.835Z,1011.86
2023-03-15T18:13:14.189Z,1011.95
2023-03-15T18:16:24.102Z,1011.94
2023-03-15T18:19:23.140Z,1011.89
2023-03-15T18:22:32.694Z,1011.88
2023-03-15T18:25:31.552Z,1011.91
2023-03-15T18:28:43.296Z,1011.99
2023-03-15T18:31:52.982Z,1012.06
2023-03-15T18:34:51.496Z,1012.01
2023-03-15T18:38:00.182Z,1012.03
2023-03-15T18:41:09.363Z,1012.08
2023-03-15T18:44:20.831Z,1012.10
2023-03-15T18:47:30.260Z,1012.06
2023-03-15T18:50:28.931Z,1012.04
2023-03-15T18:53:40.301Z,1012.12
2023-03-15T18:56:47.762Z,1012.15
2023-03-15T18:59:58.856Z,1012.18
2023-03-15T19:03:08.416Z,1012.23
2023-03-15T19:06:07.158Z,1012.19
2023-03-15T19:09:18.612Z,1012.24
2023-03-15T19:12:26.003Z,1012.23
2023-03-15T19:15:37.667Z,1012.24
2023-03-15T19:18:38.219Z,1012.18
2023-03-15T19:21:45.792Z,1012.24
2023-03-15T19:24:57.003Z,1012.27
2023-03-15T19:28:04.594Z,1012.25
2023-03-15T19:31:15.797Z,1012.37
2023-03-15T19:34:16.616Z,1012.45
2023-03-15T19:37:24.031Z,1012.44
2023-03-15T19:40:35.464Z,1012.53
2023-03-15T19:43:33.996Z,1012.55
2023-03-15T19:46:43.588Z,1012.61
2023-03-15T19:49:44.315Z,1012.58
2023-03-15T19:52:51.975Z,1012.60
2023-03-15T19:56:03.273Z,1012.66
2023-03-15T19:59:01.856Z,1012.80
2023-03-15T20:02:11.409Z,1012.76
2023-03-15T20:05:12.049Z,1012.86
2023-03-15T20:08:21.332Z,1012.81
2023-03-15T20:11:30.928Z,1012.81
2023-03-15T20:14:29.521Z,1012.76
2023-03-15T20:17:38.875Z,1012.73
2023-03-15T20:20:39.417Z,1012.75
2023-03-15T20:23:37.818Z,1012.79
2023-03-15T20:26:47.255Z,1012.83
2023-03-15T20:29:45.733Z,1012.83
2023-03-15T20:32:55.069Z,1012.78
2023-03-15T20:35:55.547Z,1012.87
2023-03-15T20:38:54.139Z,1012.88
2023-03-15T20:42:01.829Z,1012.94
2023-03-15T20:45:09.309Z,1012.91
2023-03-15T20:48:16.885Z,1013.01
2023-03-15T20:51:24.731Z,1013.09
2023-03-15T20:54:32.375Z,1013.07
2023-03-15T20:57:39.789Z,1013.06
2023-03-15T21:00:47.237Z,1013.12
2023-03-15T21:03:54.955Z,1013.14
2023-03-15T21:07:02.524Z,1013.18
2023-03-15T21:10:09.952Z,1013.17
2023-03-15T21:13:17.590Z,1013.18
2023-03-15T21:16:26.433Z,1013.15
2023-03-15T21:19:34.063Z,1013.14
2023-03-15T21:22:41.739Z,1013.18
2023-03-15T21:25:49.298Z,1013.14
2023-03-15T21:28:57.099Z,1013.10
2023-03-15T21:32:04.705Z,1013.12
2023-03-15T21:35:12.197Z,1013.14
2023-03-15T21:38:19.643Z,1013.20
2023-03-15T21:41:27.109Z,1013.21
2023-03-15T21:44:34.656Z,1013.19
2023-03-15T21:47:42.165Z,1013.28
2023-03-15T21:50:49.589Z,1013.21
2023-03-15T21:53:56.930Z,1013.23
2023-03-15T21:57:04.390Z,1013.20
2023-03-15T22:00:12.010Z,1013.25
2023-03-15T22:03:19.459Z,1013.22
2023-03-15T22:06:27.170Z,1013.23
2023-03-15T22:09:34.859Z,1013.25
2023-03-15T22:12:42.272Z,1013.25
2023-03-15T22:15:49.920Z,1013.24
2023-03-15T22:18:57.598Z,1013.31
2023-03-15T22:22:05.062Z,1013.29
2023-03-15T22:25:12.490Z,1013.32
2023-03-15T22:28:19.682Z,1013.32
2023-03-15T22:31:27.240Z,1013.22
2023-03-15T22:34:34.734Z,1013.22
2023-03-15T22:37:42.060Z,1013.27
2023-03-15T22:40:49.688Z,1013.23
2023-03-15T22:43:57.169Z,1013.24
2023-03-15T22:47:04.622Z,1013.36
2023-03-15T22:50:12.256Z,1013.34
2023-03-15T22:53:19.693Z,1013.38
2023-03-15T22:56:27.171Z,1013.37
2023-03-15T22:59:34.734Z,1013.30
2023-03-15T23:02:42.298Z,1013.34
2023-03-15T23:05:49.846Z,1013.28
2023-03-15T23:08:57.281Z,1013.34
2023-03-15T23:12:04.602Z,1013.26
2023-03-15T23:15:12.289Z,1013.34
2023-03-15T23:18:19.840Z,1013.39
2023-03-15T23:21:27.421Z,1013.35
2023-03-15T23:24:34.931Z,1013.39
2023-03-15T23:27:42.468Z,1013.40
2023-03-15T23:30:49.945Z,1013.43
2023-03-15T23:33:57.457Z,1013.46
2023-03-15T23:37:04.944Z,1013.49
2023-03-15T23:40:12.378Z,1013.52
2023-03-15T23:43:19.865Z,1013.51
2023-03-15T23:46:27.594Z,1013.50
2023-03-15T23:49:34.986Z,1013.59
2023-03-15T23:52:42.455Z,1013.63
2023-03-15T23:55:49.875Z,1013.60
2023-03-15T23:58:57.306Z,1013.68
